Share

Abu Dhabi, UAE

Abu Dhabi International (OMAA) Elev 89 ft | 24.43 °N, 54.65 °E | Change Station

Current weather conditions updated 37 minutes ago

Clear
Clear
84 °F
Feels Like 85 °F
N
7
Wind Variable Wind from SW
Sunrise 5:56 AM
Sunset 6:45 PM
Moon Waning Gibbous

Tomorrow is forecast to be Much Cooler than today.

Pressure 29.80 in
Visibility -9999.0 miles
Clouds
Heat Index 85 °F
Dew Point 63 °F
Humidity 48%
Rainfall 0.00 in
Snow Depth Not available.
UV Not available.
Pollen Not available.
Air Quality Not available.
Flu Activity Not available.
METAR OMAA 191900Z 23006KT 200V340 CAVOK 29/17 Q1009 A2981 NOSIG

More Conditions Fewer Conditions

Pressure 29.80 in
Visibility -9999.0 miles
Clouds
Heat Index 85 °F
Dew Point 63 °F
Humidity 48%
Rainfall 0.00 in
Snow Depth Not available.
UV Not available.
Pollen Not available.
Air Quality Not available.
Flu Activity Not available.
METAR OMAA 191900Z 23006KT 200V340 CAVOK 29/17 Q1009 A2981 NOSIG

More Conditions Fewer Conditions

10-Day Weather Forecast

Almanac

Astronomy

Apr. 19, 2014 Rise Set
Actual Time 5:56 AM GST 6:45 PM GST
Civil Twilight 5:33 AM GST 7:08 PM GST
Nautical Twilight 5:05 AM GST 7:36 PM GST
Astronomical Twilight 4:37 AM GST 8:04 PM GST
Moon 10:50 PM GST 9:05 AM GST
Length of Visible Light 13h 35m
Length of Day
12h 48m
Tomorrow will be 1m 19s longer.
Waning Gibbous, 77% of the Moon is Illuminated
Today
Waning Gibbous
Apr 22
Last Quarter
Apr 29
New
May 6
First Quarter
May 14
Full

Today's Extremes

Country Highs Country Lows

Community

  • Piriapolis
    Piriapolis
  • A Glorious Morning
    A Glorious Morning
  • Tender Rays Of Hope
    Tender Rays Of Hope
  • Bleeding Hearts
    Bleeding Hearts
  • Sunset Silhouettes
    Sunset Silhouettes

WunderPhotos

Upload Photos

1,702,861 photos uploaded!

WunderBlogs® & News

Nearby

Snow Depth

Not available.

Coastal Water Temperatures

Place Temperature
No Stations Reporting

Earthquake Activity

City Distance Mag. Time & Date
No recent earthquake activity has been reported nearby.
Minimum magnitude displayed is 2.5.

Nearby Weather Stations

Station Location Temp. Heat Index Dew Point Humidity Wind Precip. Elev Updated Type
Khalifa City A, close to Masdar City, Ab, Abu Dhabi 84.0 °F 86 °F 66 °F 54% SW  at  3.1 mph 0.00 in / hr 0 ft 11:29 PM GST Rapid Fire
Khalifa City A, Abu Dhabi 84.6 °F 87 °F 66 °F 53% North  at  4.5 mph 0.00 in / hr 0 ft 11:35 PM GST Rapid Fire
Bel Ghailam island, %u0627%u0644%u0625%u0645%u0627%u0631%u0627%u062A %u0627%u0644%u0639%u0631%u0628%%U0627%U0644%U0625%U0645%U0627%U0631%U0627%U062A %U0627%U0644%U0639%U0631%U0628%83.1 83.1 °F 88 °F 71 °F 68% NW  at  11.0 mph 0.00 in / hr 56 ft 11:37 PM GST Normal

Show More Stations Show Fewer Stations

What do you think?

We're not finished. Please let us know what you like, what you don't like, and what you are still missing.